Time;durP1;ratioP1;P1;durP2;ratioP2;P2;SDS_P1;SDS_P2;PMS_P1;PMS_P2;Temp;Humidity;BMP_temperature;BMP_pressure;BME280_temperature;BME280_humidity;BME280_pressure;Samples;Min_cycle;Max_cycle;Signal;HPM_P1;HPM_P2
2021/01/27 00:01:40;;;;;;;18.75;12.43;;;2.40;99.90;;;;;;4990816;28;20037;-43
2021/01/27 00:04:06;;;;;;;16.90;10.85;;;2.30;99.90;;;;;;4990586;28;20070;-42
2021/01/27 00:06:31;;;;;;;16.38;12.10;;;2.30;99.90;;;;;;5004550;28;20056;-43
2021/01/27 00:08:57;;;;;;;17.05;11.55;;;2.30;99.90;;;;;;4995619;28;20026;-42
2021/01/27 00:11:22;;;;;;;20.27;12.60;;;2.30;99.90;;;;;;5011880;28;20045;-43
2021/01/27 00:13:48;;;;;;;18.40;12.25;;;2.30;99.90;;;;;;5012317;28;20444;-42
2021/01/27 00:16:14;;;;;;;19.02;12.57;;;2.30;99.90;;;;;;4995287;28;20512;-41
2021/01/27 00:18:39;;;;;;;23.70;12.52;;;2.30;99.90;;;;;;4992946;28;20038;-42
2021/01/27 00:21:05;;;;;;;16.27;11.20;;;2.30;99.90;;;;;;5011649;28;20088;-41
2021/01/27 00:23:30;;;;;;;18.00;12.82;;;2.30;99.90;;;;;;5011482;28;20044;-42
2021/01/27 00:25:56;;;;;;;18.13;12.60;;;2.20;99.90;;;;;;4992675;28;20034;-41
2021/01/27 00:28:21;;;;;;;18.13;12.35;;;2.20;99.90;;;;;;5003072;28;20046;-42
2021/01/27 00:30:47;;;;;;;21.00;12.25;;;2.20;99.90;;;;;;5011227;28;20486;-42
2021/01/27 00:33:15;;;;;;;16.58;12.27;;;2.20;99.90;;;;;;5001603;28;20094;-46
2021/01/27 00:35:47;;;;;;;18.00;12.07;;;2.20;99.90;;;;;;5001136;28;20048;-41
2021/01/27 00:38:17;;;;;;;15.25;11.15;;;2.20;99.90;;;;;;5011507;28;20030;-41
2021/01/27 00:40:43;;;;;;;19.23;11.48;;;2.10;99.90;;;;;;5011559;28;20335;-42
2021/01/27 00:43:09;;;;;;;18.92;11.82;;;2.00;99.90;;;;;;5010547;28;20520;-44
2021/01/27 00:45:35;;;;;;;16.30;11.13;;;2.00;99.90;;;;;;5011546;28;20050;-42
2021/01/27 00:48:01;;;;;;;14.35;12.27;;;1.90;99.90;;;;;;5009619;28;20318;-47
2021/01/27 00:50:26;;;;;;;19.30;12.27;;;1.90;99.90;;;;;;4992714;28;20015;-42
2021/01/27 00:52:52;;;;;;;16.67;12.77;;;1.90;99.90;;;;;;4992704;28;20053;-40
2021/01/27 00:55:21;;;;;;;14.57;11.43;;;1.80;99.90;;;;;;4993120;28;20173;-42
2021/01/27 00:57:47;;;;;;;14.57;11.23;;;1.80;99.90;;;;;;4994162;28;20489;-44
2021/01/27 01:00:19;;;;;;;16.15;11.18;;;1.80;99.90;;;;;;4993867;28;20038;-42
2021/01/27 01:02:45;;;;;;;16.17;11.35;;;1.90;99.90;;;;;;4993672;28;20033;-41
2021/01/27 01:05:13;;;;;;;15.55;11.35;;;1.90;99.90;;;;;;4994167;28;20026;-42
2021/01/27 01:07:38;;;;;;;17.27;13.60;;;1.80;99.90;;;;;;4994118;28;20500;-42
2021/01/27 01:10:06;;;;;;;18.80;11.63;;;1.80;99.90;;;;;;4994062;28;20027;-42
2021/01/27 01:12:32;;;;;;;18.13;11.07;;;1.80;99.90;;;;;;4993972;28;20014;-42
2021/01/27 01:14:57;;;;;;;21.60;11.82;;;1.80;99.90;;;;;;4993654;28;20533;-41
2021/01/27 01:17:23;;;;;;;18.98;11.65;;;1.70;99.90;;;;;;4993395;28;20512;-42
2021/01/27 01:19:48;;;;;;;17.15;10.93;;;1.70;99.90;;;;;;4993485;28;20114;-42
2021/01/27 01:22:14;;;;;;;19.27;10.55;;;1.60;99.90;;;;;;4993798;28;20033;-41
2021/01/27 01:24:39;;;;;;;15.65;10.80;;;1.70;99.90;;;;;;4993408;28;20279;-42
2021/01/27 01:27:05;;;;;;;19.20;11.35;;;1.80;99.90;;;;;;4993488;28;20035;-41
2021/01/27 01:29:31;;;;;;;17.60;11.52;;;1.80;99.90;;;;;;5022836;23;20053;-43
2021/01/27 01:31:56;;;;;;;15.60;10.68;;;1.70;99.90;;;;;;5012745;28;20026;-47
2021/01/27 01:34:22;;;;;;;15.57;9.82;;;1.70;99.90;;;;;;5013124;28;20427;-45
2021/01/27 01:36:48;;;;;;;15.48;10.23;;;1.70;99.90;;;;;;5013624;28;20101;-45
2021/01/27 01:39:13;;;;;;;16.10;9.27;;;1.80;99.90;;;;;;5013614;28;20077;-44
2021/01/27 01:41:39;;;;;;;17.77;9.73;;;1.80;99.90;;;;;;5013472;28;20033;-40
2021/01/27 01:44:04;;;;;;;15.98;9.90;;;1.80;99.90;;;;;;5011044;28;20038;-42
2021/01/27 01:46:30;;;;;;;16.30;9.80;;;1.90;99.90;;;;;;5013428;28;20029;-42
2021/01/27 01:48:59;;;;;;;13.85;9.65;;;1.80;99.90;;;;;;5011975;28;20021;-42
2021/01/27 01:51:43;;;;;;;16.75;11.63;;;1.80;99.90;;;;;;5013235;28;20524;-40
2021/01/27 01:54:23;;;;;;;14.95;9.80;;;1.80;99.90;;;;;;5012425;28;20041;-41
2021/01/27 01:56:55;;;;;;;15.65;10.93;;;1.80;99.90;;;;;;5012274;28;20026;-42
2021/01/27 01:59:21;;;;;;;12.45;8.93;;;1.80;99.90;;;;;;5013113;28;20764;-43
2021/01/27 02:01:51;;;;;;;16.13;10.52;;;1.70;99.90;;;;;;5012867;28;20065;-43
2021/01/27 02:04:17;;;;;;;14.63;10.57;;;1.70;99.90;;;;;;5012328;28;20053;-44
2021/01/27 02:06:43;;;;;;;12.00;9.40;;;1.70;99.90;;;;;;5013026;28;20018;-43
2021/01/27 02:09:09;;;;;;;15.65;9.70;;;1.70;99.90;;;;;;5012838;28;20080;-46
2021/01/27 02:11:40;;;;;;;14.43;8.88;;;1.70;99.90;;;;;;5013150;28;20026;-41
2021/01/27 02:14:33;;;;;;;13.50;9.50;;;1.80;99.90;;;;;;5013395;28;20109;-42
2021/01/27 02:17:06;;;;;;;16.48;9.57;;;1.80;99.90;;;;;;5016895;28;20401;-40
2021/01/27 02:19:59;;;;;;;13.50;8.82;;;1.70;99.90;;;;;;5012902;28;20033;-40
2021/01/27 02:22:49;;;;;;;15.80;8.52;;;1.60;99.90;;;;;;5012490;28;20022;-44
2021/01/27 02:25:36;;;;;;;15.68;8.82;;;1.70;99.90;;;;;;5012548;28;20034;-44
2021/01/27 02:28:08;;;;;;;11.35;8.05;;;1.60;99.90;;;;;;5012388;28;20041;-41
2021/01/27 02:31:04;;;;;;;16.63;10.00;;;1.60;99.90;;;;;;5013953;28;20064;-41
2021/01/27 02:34:10;;;;;;;11.57;8.07;;;1.70;99.90;;;;;;5013275;28;20061;-45
2021/01/27 02:36:53;;;;;;;11.67;8.53;;;1.70;99.90;;;;;;5013452;28;20095;-43
2021/01/27 02:39:24;;;;;;;12.85;8.55;;;1.80;99.90;;;;;;5013256;28;20485;-40
2021/01/27 02:42:00;;;;;;;12.73;9.05;;;1.90;99.90;;;;;;5012522;28;20536;-43
2021/01/27 02:44:37;;;;;;;12.52;8.30;;;1.90;99.90;;;;;;5011418;28;20083;-42
2021/01/27 02:47:08;;;;;;;22.67;9.48;;;1.90;99.90;;;;;;5012058;28;20021;-40
2021/01/27 02:49:45;;;;;;;14.23;8.85;;;1.90;99.90;;;;;;5012146;28;20591;-45
2021/01/27 02:52:21;;;;;;;11.48;8.18;;;1.90;99.90;;;;;;5011934;28;20022;-41
2021/01/27 02:55:10;;;;;;;14.95;8.55;;;1.80;99.90;;;;;;5011529;28;20489;-40
2021/01/27 02:57:47;;;;;;;10.75;7.63;;;1.80;99.90;;;;;;5012089;28;20037;-46
2021/01/27 03:00:29;;;;;;;16.10;8.98;;;1.80;99.90;;;;;;5014973;28;20036;-43
2021/01/27 03:03:21;;;;;;;15.35;9.23;;;1.80;99.90;;;;;;5016142;28;20037;-42
2021/01/27 03:05:52;;;;;;;9.98;7.65;;;1.70;99.90;;;;;;5016671;28;20412;-40
2021/01/27 03:08:23;;;;;;;15.05;8.80;;;1.70;99.90;;;;;;5017186;28;20099;-41
2021/01/27 03:11:19;;;;;;;11.68;8.65;;;1.80;99.90;;;;;;5014503;28;20037;-40
2021/01/27 03:13:46;;;;;;;11.50;7.93;;;1.80;99.90;;;;;;5011200;28;20029;-41
2021/01/27 03:16:28;;;;;;;13.93;8.93;;;1.80;99.90;;;;;;5012312;28;20452;-40
2021/01/27 03:19:22;;;;;;;14.27;8.13;;;1.80;99.90;;;;;;5011491;28;20511;-42
2021/01/27 03:21:54;;;;;;;16.60;9.35;;;1.80;99.90;;;;;;5011522;28;20048;-45
2021/01/27 03:24:22;;;;;;;12.20;7.85;;;1.80;99.90;;;;;;5010622;28;20029;-41
2021/01/27 03:26:58;;;;;;;19.05;10.18;;;1.80;99.90;;;;;;5011413;28;20168;-41
2021/01/27 03:29:47;;;;;;;13.38;8.13;;;1.80;99.90;;;;;;5009806;28;20037;-41
2021/01/27 03:32:38;;;;;;;13.30;7.55;;;1.70;99.90;;;;;;5012099;28;20089;-46
2021/01/27 03:35:38;;;;;;;12.15;6.57;;;1.80;99.90;;;;;;5011612;28;20033;-41
2021/01/27 03:38:19;;;;;;;14.35;7.30;;;1.90;99.90;;;;;;5011390;28;20033;-42
2021/01/27 03:40:47;;;;;;;12.63;7.50;;;1.90;99.90;;;;;;5011682;28;20049;-40
2021/01/27 03:43:26;;;;;;;10.68;7.10;;;1.90;99.90;;;;;;5012229;28;20025;-45
2021/01/27 03:46:01;;;;;;;13.65;7.80;;;1.90;99.90;;;;;;5012627;28;20022;-41
2021/01/27 03:48:42;;;;;;;14.83;7.10;;;1.90;99.90;;;;;;5012918;28;20386;-45
2021/01/27 03:51:10;;;;;;;10.40;7.43;;;2.00;99.90;;;;;;5012735;28;20100;-42
2021/01/27 03:53:36;;;;;;;16.35;7.88;;;2.00;99.90;;;;;;5012100;28;20085;-42
2021/01/27 03:56:10;;;;;;;15.63;7.40;;;2.00;99.90;;;;;;5010831;28;20033;-38
2021/01/27 03:58:44;;;;;;;12.75;7.80;;;2.00;99.90;;;;;;5012199;28;20169;-44
2021/01/27 04:01:21;;;;;;;11.73;6.55;;;1.90;99.90;;;;;;5011395;28;20062;-42
2021/01/27 04:03:52;;;;;;;11.13;7.50;;;2.00;99.90;;;;;;5010217;28;20022;-45
2021/01/27 04:06:18;;;;;;;10.55;6.63;;;1.90;99.90;;;;;;5010718;28;20014;-41
2021/01/27 04:08:43;;;;;;;8.93;6.80;;;1.90;99.90;;;;;;5010800;28;20109;-43
2021/01/27 04:11:10;;;;;;;12.98;7.00;;;1.90;99.90;;;;;;5011105;28;20030;-41
2021/01/27 04:13:37;;;;;;;15.07;8.07;;;1.90;99.90;;;;;;5010091;28;20022;-46
2021/01/27 04:16:02;;;;;;;16.02;7.10;;;1.90;99.90;;;;;;5010650;28;20026;-44
2021/01/27 04:18:28;;;;;;;12.57;7.03;;;1.90;99.90;;;;;;5010664;28;20034;-43
2021/01/27 04:20:55;;;;;;;10.15;7.32;;;1.90;99.90;;;;;;5010753;28;20030;-40
2021/01/27 04:23:20;;;;;;;12.05;7.20;;;1.90;99.90;;;;;;5009902;28;20022;-42
2021/01/27 04:25:46;;;;;;;14.05;7.05;;;2.00;99.90;;;;;;5010516;28;20393;-47
2021/01/27 04:28:12;;;;;;;12.80;7.63;;;2.00;99.90;;;;;;5010555;28;20026;-41
2021/01/27 04:30:38;;;;;;;13.50;6.80;;;2.00;99.90;;;;;;5010672;28;20481;-43
2021/01/27 04:33:07;;;;;;;8.98;6.78;;;2.10;99.90;;;;;;5009985;28;20022;-42
2021/01/27 04:35:33;;;;;;;13.77;7.00;;;2.10;99.90;;;;;;5011802;28;20485;-42
2021/01/27 04:37:59;;;;;;;10.50;7.07;;;2.10;99.90;;;;;;5012563;28;20033;-41
2021/01/27 04:40:46;;;;;;;11.98;7.60;;;2.20;99.90;;;;;;5010487;28;20029;-43
2021/01/27 04:43:28;;;;;;;9.55;6.88;;;2.10;99.90;;;;;;5009819;28;20545;-45
2021/01/27 04:46:13;;;;;;;9.50;7.22;;;2.10;99.90;;;;;;5010556;28;20026;-47
2021/01/27 04:49:01;;;;;;;12.75;7.45;;;2.30;99.90;;;;;;5010617;28;20022;-43
2021/01/27 04:51:38;;;;;;;16.20;7.18;;;2.30;99.90;;;;;;5011186;28;20022;-41
2021/01/27 04:54:19;;;;;;;12.48;7.00;;;2.30;99.90;;;;;;5013333;28;20313;-42
2021/01/27 04:56:55;;;;;;;16.67;7.03;;;2.20;99.90;;;;;;5010888;28;20029;-43
2021/01/27 04:59:44;;;;;;;9.85;6.57;;;2.30;99.90;;;;;;5014129;28;20068;-45
2021/01/27 05:02:26;;;;;;;11.23;6.53;;;2.20;99.90;;;;;;5013959;28;20092;-45
2021/01/27 05:05:12;;;;;;;10.88;7.97;;;2.20;99.90;;;;;;5013248;28;20026;-44
2021/01/27 05:07:43;;;;;;;12.68;6.28;;;2.10;99.90;;;;;;5013758;28;20116;-43
2021/01/27 05:10:14;;;;;;;12.05;7.00;;;2.10;99.90;;;;;;5013593;28;20033;-43
2021/01/27 05:12:47;;;;;;;12.65;7.53;;;2.10;99.90;;;;;;5013380;28;20049;-39
2021/01/27 05:15:13;;;;;;;12.70;7.22;;;2.00;99.90;;;;;;5013642;28;20033;-41
2021/01/27 05:17:44;;;;;;;13.00;7.32;;;2.00;99.90;;;;;;5013446;28;20030;-41
2021/01/27 05:20:12;;;;;;;20.30;8.15;;;2.00;99.90;;;;;;5013482;28;20026;-42
2021/01/27 05:22:38;;;;;;;9.80;6.88;;;2.00;99.90;;;;;;5011370;28;20113;-43
2021/01/27 05:25:12;;;;;;;10.90;8.23;;;1.90;99.90;;;;;;5013333;28;20022;-44
2021/01/27 05:27:39;;;;;;;7.75;6.30;;;1.90;99.90;;;;;;5013420;28;20073;-45
2021/01/27 05:30:04;;;;;;;8.68;6.07;;;1.90;99.90;;;;;;5013039;28;20080;-41
2021/01/27 05:32:50;;;;;;;15.32;8.65;;;1.90;99.90;;;;;;5013097;28;20489;-42
2021/01/27 05:35:26;;;;;;;11.90;6.10;;;1.90;99.90;;;;;;5011846;28;20026;-41
2021/01/27 05:37:52;;;;;;;10.32;6.22;;;2.00;99.90;;;;;;5013123;28;20076;-45
2021/01/27 05:40:35;;;;;;;14.80;7.22;;;2.00;99.90;;;;;;5013072;28;20456;-41
2021/01/27 05:43:19;;;;;;;10.38;6.20;;;2.10;99.90;;;;;;5012467;28;20080;-45
2021/01/27 05:45:45;;;;;;;11.07;5.63;;;2.10;99.90;;;;;;5012972;28;20053;-42
2021/01/27 05:48:27;;;;;;;14.20;7.32;;;2.10;99.90;;;;;;5012824;28;20465;-43
2021/01/27 05:51:11;;;;;;;13.35;6.80;;;2.10;99.90;;;;;;5012819;28;20057;-45
2021/01/27 05:53:36;;;;;;;12.63;6.47;;;2.20;99.90;;;;;;5012376;28;20125;-40
2021/01/27 05:56:09;;;;;;;11.05;7.13;;;2.30;99.90;;;;;;5011614;28;20532;-41
2021/01/27 05:58:38;;;;;;;10.07;6.55;;;2.30;99.90;;;;;;5012679;28;20114;-44
2021/01/27 06:01:35;;;;;;;14.73;6.78;;;2.20;99.90;;;;;;5012864;28;20057;-41
2021/01/27 06:04:15;;;;;;;10.63;6.70;;;2.20;99.90;;;;;;5011430;28;20025;-42
2021/01/27 06:06:50;;;;;;;10.57;6.78;;;2.20;99.90;;;;;;5012786;28;20030;-43
2021/01/27 06:09:31;;;;;;;12.18;7.38;;;2.20;99.90;;;;;;5012541;28;20485;-43
2021/01/27 06:12:03;;;;;;;11.52;7.78;;;2.10;99.90;;;;;;5012531;28;20053;-47
2021/01/27 06:14:28;;;;;;;10.90;7.35;;;2.20;99.90;;;;;;5011869;28;20025;-42
2021/01/27 06:16:54;;;;;;;9.07;6.68;;;2.10;99.90;;;;;;5011370;28;20037;-42
2021/01/27 06:19:23;;;;;;;15.07;7.95;;;2.10;99.90;;;;;;5013402;28;20375;-44
2021/01/27 06:22:07;;;;;;;11.30;7.35;;;2.00;99.90;;;;;;5011966;28;20065;-40
2021/01/27 06:24:46;;;;;;;13.25;8.38;;;2.00;99.90;;;;;;5012601;28;20042;-42
2021/01/27 06:27:55;;;;;;;14.38;7.53;;;1.90;99.90;;;;;;5013173;28;20033;-41
2021/01/27 06:30:42;;;;;;;13.65;8.57;;;1.80;99.90;;;;;;5014086;28;20034;-41
2021/01/27 06:33:18;;;;;;;11.40;8.13;;;1.70;99.90;;;;;;5013854;28;20037;-43
2021/01/27 06:35:47;;;;;;;13.25;7.60;;;1.60;99.90;;;;;;5014170;28;20026;-43
2021/01/27 06:38:24;;;;;;;13.32;8.02;;;1.60;99.90;;;;;;5013438;28;20548;-40
2021/01/27 06:41:02;;;;;;;14.18;8.77;;;1.60;99.90;;;;;;5013617;28;20473;-45
2021/01/27 06:43:57;;;;;;;12.00;7.97;;;1.60;99.90;;;;;;5012825;28;20026;-45
2021/01/27 06:46:30;;;;;;;14.80;7.97;;;1.60;99.90;;;;;;5012020;28;20022;-45
2021/01/27 06:49:15;;;;;;;14.40;9.57;;;1.60;99.90;;;;;;5013262;28;20033;-49
2021/01/27 06:52:04;;;;;;;15.02;9.73;;;1.70;99.90;;;;;;5013108;28;20018;-47
2021/01/27 06:54:54;;;;;;;10.02;7.45;;;1.60;99.90;;;;;;5012166;28;20523;-48
2021/01/27 06:57:43;;;;;;;14.93;8.75;;;1.70;99.90;;;;;;5013881;28;20021;-46
2021/01/27 07:00:21;;;;;;;16.45;8.43;;;1.80;99.90;;;;;;5014203;28;20113;-42
2021/01/27 07:03:20;;;;;;;12.30;8.45;;;1.80;99.90;;;;;;5015339;28;20404;-42
2021/01/27 07:06:20;;;;;;;12.02;8.43;;;1.90;99.90;;;;;;5012737;28;20033;-45
2021/01/27 07:09:22;;;;;;;16.42;8.60;;;1.90;99.90;;;;;;5011871;28;20072;-42
2021/01/27 07:12:32;;;;;;;13.05;8.77;;;1.80;99.90;;;;;;5012159;28;20469;-45
2021/01/27 07:15:24;;;;;;;14.07;8.00;;;1.80;99.90;;;;;;5010237;28;20034;-47
2021/01/27 07:18:07;;;;;;;12.10;8.48;;;1.80;99.90;;;;;;5006433;28;20022;-43
2021/01/27 07:20:45;;;;;;;17.52;9.55;;;1.70;99.90;;;;;;5001709;28;20400;-44
2021/01/27 07:23:21;;;;;;;15.55;9.30;;;1.70;99.90;;;;;;4997886;28;20022;-41
2021/01/27 07:26:01;;;;;;;19.33;9.07;;;1.70;99.90;;;;;;5010864;28;20038;-48
2021/01/27 07:31:02;;;;;;;15.40;10.05;;;1.80;99.90;;;;;;5026281;28;20072;-51
2021/01/27 07:33:37;;;;;;;17.67;11.10;;;1.80;99.90;;;;;;5023361;28;20384;-48
2021/01/27 07:36:32;;;;;;;15.48;10.70;;;1.70;99.90;;;;;;5029575;28;20026;-51
2021/01/27 07:39:01;;;;;;;13.98;10.10;;;1.70;99.90;;;;;;5010071;28;20030;-49
2021/01/27 07:41:42;;;;;;;16.33;9.63;;;1.60;99.90;;;;;;5009878;28;20030;-48
2021/01/27 07:44:14;;;;;;;14.90;10.25;;;1.60;99.90;;;;;;5009115;28;20107;-48
2021/01/27 07:47:14;;;;;;;17.90;10.10;;;1.50;99.90;;;;;;5023131;28;20370;-48
2021/01/27 07:49:45;;;;;;;19.13;11.38;;;1.40;99.90;;;;;;5009336;28;20437;-51
2021/01/27 07:52:28;;;;;;;16.52;11.45;;;1.50;99.90;;;;;;5010652;28;20029;-46
2021/01/27 07:55:02;;;;;;;16.15;10.30;;;1.50;99.90;;;;;;5009925;28;20049;-51
2021/01/27 07:57:36;;;;;;;20.00;11.43;;;1.50;99.90;;;;;;5014429;28;20025;-57
2021/01/27 08:00:16;;;;;;;22.00;11.38;;;1.50;99.90;;;;;;5030242;28;20519;-53
2021/01/27 08:02:58;;;;;;;15.32;10.40;;;1.60;99.90;;;;;;5027978;28;20029;-55
2021/01/27 08:05:24;;;;;;;19.73;10.25;;;1.60;99.90;;;;;;5014263;28;20489;-58
2021/01/27 08:08:14;;;;;;;18.52;11.00;;;1.70;99.90;;;;;;5022277;28;20048;-49
2021/01/27 08:10:40;;;;;;;22.50;11.68;;;1.70;99.90;;;;;;5024659;28;20029;-50
2021/01/27 08:13:17;;;;;;;17.27;11.27;;;1.70;99.90;;;;;;5008522;28;20394;-50
2021/01/27 08:15:59;;;;;;;20.17;12.32;;;1.70;99.90;;;;;;5025945;28;20053;-52
2021/01/27 08:18:25;;;;;;;21.75;10.68;;;1.80;99.90;;;;;;5027323;28;20053;-52
2021/01/27 08:21:23;;;;;;;16.45;10.60;;;1.80;99.90;;;;;;5028761;28;20053;-54
2021/01/27 08:23:48;;;;;;;16.85;9.85;;;1.70;99.90;;;;;;5017336;28;20037;-58
2021/01/27 08:26:43;;;;;;;13.57;8.88;;;1.80;99.90;;;;;;5028791;28;20582;-43
2021/01/27 08:29:11;;;;;;;21.77;10.43;;;1.70;99.90;;;;;;5033248;28;20174;-62
2021/01/27 08:31:37;;;;;;;17.58;10.82;;;1.60;99.90;;;;;;5014202;28;20024;-48
2021/01/27 08:34:02;;;;;;;21.25;12.32;;;1.60;99.90;;;;;;5014785;28;20108;-51
2021/01/27 08:36:31;;;;;;;36.00;11.48;;;1.60;99.90;;;;;;5032828;28;20030;-48
2021/01/27 08:38:56;;;;;;;18.35;11.50;;;1.60;99.90;;;;;;5032187;28;20428;-51
2021/01/27 08:41:40;;;;;;;19.00;11.45;;;1.60;99.90;;;;;;5017949;28;20092;-52
2021/01/27 08:44:11;;;;;;;22.17;11.70;;;1.60;99.90;;;;;;5032028;28;20197;-50
2021/01/27 08:47:01;;;;;;;18.52;10.82;;;1.60;99.90;;;;;;5031468;28;20093;-51
2021/01/27 08:49:42;;;;;;;19.95;12.48;;;1.70;99.90;;;;;;5013097;28;20099;-51
2021/01/27 08:52:10;;;;;;;26.58;12.98;;;1.60;99.90;;;;;;5031976;28;20025;-53
2021/01/27 08:54:39;;;;;;;23.33;12.13;;;1.70;99.90;;;;;;5023688;28;20105;-52
2021/01/27 08:57:33;;;;;;;18.08;12.20;;;1.70;99.90;;;;;;5013935;28;20030;-52
2021/01/27 09:00:08;;;;;;;28.10;13.60;;;1.60;99.90;;;;;;5025145;28;20021;-50
2021/01/27 09:02:41;;;;;;;20.25;12.80;;;1.60;99.90;;;;;;5032060;28;20562;-50
2021/01/27 09:05:24;;;;;;;22.48;13.77;;;1.60;99.90;;;;;;5021158;28;20491;-47
2021/01/27 09:08:04;;;;;;;24.25;13.70;;;1.70;99.90;;;;;;5012485;28;20100;-45
2021/01/27 09:10:48;;;;;;;19.02;13.38;;;1.70;99.90;;;;;;5028109;28;20140;-45
2021/01/27 09:13:34;;;;;;;19.50;13.20;;;1.70;99.90;;;;;;5026842;28;20544;-46
2021/01/27 09:16:03;;;;;;;;;;;1.70;99.90;;;;;;5020694;28;20125;-42
2021/01/27 09:18:29;;;;;;;18.05;12.73;;;1.60;99.90;;;;;;5014592;28;19988;-41
2021/01/27 09:20:57;;;;;;;19.08;12.60;;;1.60;99.90;;;;;;5013765;28;20061;-42
2021/01/27 09:23:22;;;;;;;17.70;12.70;;;1.60;99.90;;;;;;5011783;28;20026;-42
2021/01/27 09:25:50;;;;;;;23.95;12.40;;;1.70;99.90;;;;;;5013915;28;20492;-46
2021/01/27 09:28:24;;;;;;;22.50;14.02;;;1.70;99.90;;;;;;5013401;28;20499;-42
2021/01/27 09:30:52;;;;;;;18.98;11.63;;;1.70;99.90;;;;;;5013016;28;20053;-44
2021/01/27 09:33:34;;;;;;;18.95;13.10;;;1.60;99.90;;;;;;5013152;28;20018;-43
2021/01/27 09:36:24;;;;;;;22.02;13.30;;;1.60;99.90;;;;;;5012198;28;20076;-43
2021/01/27 09:38:55;;;;;;;19.17;13.02;;;1.70;99.90;;;;;;5003562;28;20129;-43
2021/01/27 09:41:25;;;;;;;19.42;13.52;;;1.70;99.90;;;;;;5012075;28;20497;-42
2021/01/27 09:43:52;;;;;;;21.75;12.65;;;1.60;99.90;;;;;;5013195;28;20037;-42
2021/01/27 09:46:34;;;;;;;17.83;12.38;;;1.60;99.90;;;;;;5011855;28;20198;-44
2021/01/27 09:49:11;;;;;;;23.50;14.10;;;1.60;99.90;;;;;;5015810;28;20022;-46
2021/01/27 09:51:40;;;;;;;18.10;13.30;;;1.70;99.90;;;;;;5013962;28;20072;-53
2021/01/27 09:54:06;;;;;;;17.25;13.20;;;1.70;99.90;;;;;;5019777;28;20373;-46
2021/01/27 09:56:33;;;;;;;16.73;12.32;;;1.70;99.90;;;;;;5032443;28;20098;-46
2021/01/27 09:58:59;;;;;;;19.08;12.95;;;1.70;99.90;;;;;;5022358;28;20025;-44
2021/01/27 10:01:29;;;;;;;18.30;12.27;;;1.70;99.90;;;;;;5012255;28;20108;-43
2021/01/27 10:04:08;;;;;;;18.02;11.77;;;1.70;99.90;;;;;;5027494;28;20025;-44
2021/01/27 10:07:03;;;;;;;16.10;11.38;;;1.70;99.90;;;;;;5031991;28;20028;-44
2021/01/27 10:09:32;;;;;;;16.37;11.97;;;1.70;99.90;;;;;;5032383;28;20048;-44
2021/01/27 10:12:04;;;;;;;17.55;11.25;;;1.70;99.90;;;;;;5017954;28;20034;-43
2021/01/27 10:14:37;;;;;;;17.05;11.57;;;1.60;99.90;;;;;;5009914;28;20029;-44
2021/01/27 10:17:06;;;;;;;20.15;11.32;;;1.70;99.90;;;;;;5020194;28;20037;-55
2021/01/27 10:19:47;;;;;;;17.08;10.52;;;1.80;99.90;;;;;;5011701;28;20029;-60
2021/01/27 10:22:14;;;;;;;15.32;11.45;;;1.70;99.90;;;;;;5027675;28;20032;-49
2021/01/27 10:24:52;;;;;;;14.65;10.30;;;1.70;99.90;;;;;;5014595;28;20489;-49
2021/01/27 10:27:36;;;;;;;19.40;11.95;;;1.80;99.90;;;;;;5011302;28;20026;-45
2021/01/27 10:30:05;;;;;;;17.80;11.20;;;1.80;99.90;;;;;;5015293;28;20031;-47
2021/01/27 10:32:31;;;;;;;13.57;10.82;;;1.80;99.90;;;;;;5011655;28;20022;-50
2021/01/27 10:34:56;;;;;;;14.90;11.05;;;1.80;99.90;;;;;;5011061;28;20473;-46
2021/01/27 10:37:36;;;;;;;16.88;13.00;;;1.70;99.90;;;;;;5029325;28;20452;-45
2021/01/27 10:40:08;;;;;;;16.15;11.93;;;1.80;99.90;;;;;;5031874;28;20036;-48
2021/01/27 10:42:39;;;;;;;16.40;11.25;;;1.80;99.90;;;;;;5012098;28;20532;-44
2021/01/27 10:45:33;;;;;;;18.00;11.88;;;1.80;99.90;;;;;;5011488;28;20125;-46
2021/01/27 10:48:11;;;;;;;13.43;10.98;;;1.80;99.90;;;;;;5011681;28;20382;-45
2021/01/27 10:50:44;;;;;;;19.40;12.40;;;1.80;99.90;;;;;;5013125;28;20485;-47
2021/01/27 10:53:15;;;;;;;16.70;11.73;;;1.80;99.90;;;;;;5031503;28;20049;-44
2021/01/27 10:55:45;;;;;;;16.38;12.27;;;1.80;99.90;;;;;;5027024;28;20020;-46
2021/01/27 10:58:14;;;;;;;15.63;12.02;;;1.80;99.90;;;;;;5012715;28;20044;-45
2021/01/27 11:00:40;;;;;;;16.67;11.57;;;1.90;99.90;;;;;;5013350;28;20037;-48
2021/01/27 11:03:08;;;;;;;24.50;13.45;;;2.00;99.90;;;;;;5031044;28;20025;-45
2021/01/27 11:05:34;;;;;;;17.23;12.00;;;2.00;99.90;;;;;;5030238;28;20109;-44
2021/01/27 11:08:01;;;;;;;16.42;11.25;;;2.00;99.90;;;;;;5011619;28;20105;-47
2021/01/27 11:10:27;;;;;;;15.10;11.50;;;2.00;99.90;;;;;;5013154;28;20028;-45
2021/01/27 11:12:53;;;;;;;14.07;11.40;;;2.00;99.90;;;;;;5029899;28;20504;-47
2021/01/27 11:15:19;;;;;;;13.80;11.25;;;2.00;99.90;;;;;;5029305;28;20030;-48
2021/01/27 11:17:47;;;;;;;14.20;11.90;;;2.00;99.90;;;;;;5029925;28;20033;-48
2021/01/27 11:20:13;;;;;;;19.40;13.23;;;2.00;99.90;;;;;;5022206;28;20022;-50
2021/01/27 11:22:38;;;;;;;14.88;11.40;;;2.10;99.90;;;;;;5027928;28;20034;-44
2021/01/27 11:25:04;;;;;;;16.30;12.57;;;2.10;99.90;;;;;;5014084;28;20080;-59
2021/01/27 11:27:30;;;;;;;15.73;12.35;;;2.20;99.90;;;;;;5029324;28;20025;-55
2021/01/27 11:29:55;;;;;;;14.98;11.52;;;2.30;99.90;;;;;;5023851;28;20025;-53
2021/01/27 11:32:21;;;;;;;13.10;11.23;;;2.30;99.90;;;;;;5027943;28;20070;-43
2021/01/27 11:34:46;;;;;;;11.88;10.63;;;2.20;99.90;;;;;;5030602;28;20029;-42
2021/01/27 11:37:12;;;;;;;10.63;8.93;;;2.30;99.90;;;;;;5016517;28;20169;-45
2021/01/27 11:39:38;;;;;;;11.45;9.38;;;2.30;99.90;;;;;;5027717;28;20033;-45
2021/01/27 11:42:04;;;;;;;13.25;8.73;;;2.30;99.90;;;;;;5018120;28;20468;-45
2021/01/27 11:44:29;;;;;;;12.05;9.65;;;2.20;99.90;;;;;;5008794;28;20056;-46
2021/01/27 11:46:55;;;;;;;10.25;8.43;;;2.20;99.90;;;;;;5010900;28;20033;-45
2021/01/27 11:49:21;;;;;;;10.10;7.63;;;2.20;99.90;;;;;;5010425;28;20088;-43
2021/01/27 11:51:48;;;;;;;8.50;7.68;;;2.20;99.90;;;;;;5018481;28;20022;-44
2021/01/27 11:54:13;;;;;;;10.48;7.80;;;2.30;99.90;;;;;;5030792;28;20026;-45
2021/01/27 11:56:40;;;;;;;10.35;6.75;;;2.20;99.90;;;;;;5030734;28;20076;-46
2021/01/27 11:59:06;;;;;;;8.25;6.80;;;2.10;99.90;;;;;;5030697;28;20032;-43
2021/01/27 12:01:35;;;;;;;8.45;7.55;;;2.10;99.90;;;;;;5030768;28;20030;-47
2021/01/27 12:04:01;;;;;;;7.40;6.53;;;2.00;99.90;;;;;;5037318;28;20032;-45
2021/01/27 12:06:26;;;;;;;7.80;6.53;;;2.00;99.90;;;;;;5037473;28;20025;-45
2021/01/27 12:08:52;;;;;;;6.57;5.93;;;2.00;99.90;;;;;;5037546;28;20018;-47
2021/01/27 12:11:17;;;;;;;7.63;6.90;;;2.00;99.90;;;;;;5037537;28;20124;-47
2021/01/27 12:13:43;;;;;;;7.20;5.80;;;2.10;99.90;;;;;;5037365;28;20025;-48
2021/01/27 12:16:08;;;;;;;6.75;6.05;;;2.10;99.90;;;;;;5037323;28;20036;-46
2021/01/27 12:18:34;;;;;;;6.85;6.15;;;2.10;99.90;;;;;;5036991;28;20021;-45
2021/01/27 12:20:59;;;;;;;5.47;5.03;;;2.10;99.90;;;;;;5037100;28;20469;-46
2021/01/27 12:23:25;;;;;;;6.05;5.45;;;2.10;99.90;;;;;;5036595;28;20037;-44
2021/01/27 12:25:50;;;;;;;6.40;5.80;;;2.10;99.90;;;;;;5037129;28;20032;-48
2021/01/27 12:28:16;;;;;;;5.55;4.97;;;2.20;99.90;;;;;;5036888;28;20014;-44
2021/01/27 12:30:41;;;;;;;6.88;6.18;;;2.20;99.90;;;;;;5034387;28;20029;-46
2021/01/27 12:33:09;;;;;;;6.18;5.68;;;2.20;99.90;;;;;;5020393;28;20505;-45
2021/01/27 12:35:35;;;;;;;6.78;6.18;;;2.20;99.90;;;;;;5017128;28;20179;-47
2021/01/27 12:38:00;;;;;;;5.63;5.13;;;2.30;99.90;;;;;;5015664;28;20109;-48
2021/01/27 12:40:27;;;;;;;6.05;5.45;;;2.30;99.90;;;;;;5021087;28;20025;-46
2021/01/27 12:42:52;;;;;;;5.47;4.97;;;2.20;99.90;;;;;;5034456;28;20485;-47
2021/01/27 12:45:21;;;;;;;5.63;5.13;;;2.20;99.90;;;;;;5032525;28;20029;-46
2021/01/27 12:47:47;;;;;;;6.18;5.63;;;2.30;99.90;;;;;;5016934;28;20029;-45
2021/01/27 12:50:13;;;;;;;5.82;5.22;;;2.20;99.90;;;;;;5018241;28;20037;-43
2021/01/27 12:52:39;;;;;;;5.72;4.85;;;2.20;99.90;;;;;;5026181;28;20096;-54
2021/01/27 12:55:09;;;;;;;6.55;5.43;;;2.20;99.90;;;;;;5021586;28;20108;-55
2021/01/27 12:57:36;;;;;;;6.85;6.25;;;2.20;99.90;;;;;;5031091;28;20105;-55
2021/01/27 13:00:05;;;;;;;6.60;5.93;;;2.30;99.90;;;;;;5032888;28;20094;-58
2021/01/27 13:02:31;;;;;;;6.88;5.95;;;2.30;99.90;;;;;;5022112;28;20029;-56
2021/01/27 13:04:56;;;;;;;5.65;5.15;;;2.30;99.90;;;;;;5035840;28;20056;-55
2021/01/27 13:07:22;;;;;;;5.88;5.28;;;2.30;99.90;;;;;;5035592;28;20148;-55
2021/01/27 13:09:47;;;;;;;7.47;5.30;;;2.20;99.90;;;;;;5035465;28;20097;-56
2021/01/27 13:12:13;;;;;;;6.47;5.88;;;2.20;99.90;;;;;;5034654;28;20033;-53
2021/01/27 13:14:38;;;;;;;6.72;6.13;;;2.20;99.90;;;;;;5033131;28;20076;-57
2021/01/27 13:17:04;;;;;;;6.78;5.95;;;2.20;99.90;;;;;;5032260;28;20025;-60